sensor_id;sensor_type;location;lat;lon;timestamp;P1;durP1;ratioP1;P2;durP2;ratioP2
6898;SDS011;3488;42.616;23.350;2022-12-18T00:00:47;7.85;;;5.03;;
6898;SDS011;3488;42.616;23.350;2022-12-18T00:03:14;4.80;;;4.40;;
6898;SDS011;3488;42.616;23.350;2022-12-18T00:05:47;5.60;;;4.80;;
6898;SDS011;3488;42.616;23.350;2022-12-18T00:08:15;4.47;;;4.18;;
6898;SDS011;3488;42.616;23.350;2022-12-18T00:10:42;5.53;;;5.05;;
6898;SDS011;3488;42.616;23.350;2022-12-18T00:13:09;5.32;;;4.63;;
6898;SDS011;3488;42.616;23.350;2022-12-18T00:15:38;7.00;;;5.13;;
6898;SDS011;3488;42.616;23.350;2022-12-18T00:18:06;6.68;;;5.80;;
6898;SDS011;3488;42.616;23.350;2022-12-18T00:20:35;7.57;;;6.05;;
6898;SDS011;3488;42.616;23.350;2022-12-18T00:23:03;5.88;;;5.10;;
6898;SDS011;3488;42.616;23.350;2022-12-18T00:25:32;7.85;;;5.70;;
6898;SDS011;3488;42.616;23.350;2022-12-18T00:27:59;5.93;;;5.40;;
6898;SDS011;3488;42.616;23.350;2022-12-18T00:30:27;5.75;;;5.25;;
6898;SDS011;3488;42.616;23.350;2022-12-18T00:32:55;7.32;;;5.90;;
6898;SDS011;3488;42.616;23.350;2022-12-18T00:35:24;7.68;;;6.32;;
6898;SDS011;3488;42.616;23.350;2022-12-18T00:37:51;7.68;;;6.53;;
6898;SDS011;3488;42.616;23.350;2022-12-18T00:40:18;7.38;;;6.55;;
6898;SDS011;3488;42.616;23.350;2022-12-18T00:42:45;6.50;;;5.95;;
6898;SDS011;3488;42.616;23.350;2022-12-18T00:45:22;5.53;;;5.03;;
6898;SDS011;3488;42.616;23.350;2022-12-18T00:47:51;6.40;;;5.80;;
6898;SDS011;3488;42.616;23.350;2022-12-18T00:50:21;7.10;;;6.18;;
6898;SDS011;3488;42.616;23.350;2022-12-18T00:52:48;8.30;;;6.03;;
6898;SDS011;3488;42.616;23.350;2022-12-18T00:55:15;10.18;;;7.03;;
6898;SDS011;3488;42.616;23.350;2022-12-18T00:57:42;7.97;;;6.57;;
6898;SDS011;3488;42.616;23.350;2022-12-18T01:00:11;9.07;;;6.45;;
6898;SDS011;3488;42.616;23.350;2022-12-18T01:02:39;7.38;;;5.78;;
6898;SDS011;3488;42.616;23.350;2022-12-18T01:05:07;7.38;;;6.07;;
6898;SDS011;3488;42.616;23.350;2022-12-18T01:07:37;6.88;;;6.25;;
6898;SDS011;3488;42.616;23.350;2022-12-18T01:10:04;7.00;;;5.97;;
6898;SDS011;3488;42.616;23.350;2022-12-18T01:12:38;8.88;;;6.85;;
6898;SDS011;3488;42.616;23.350;2022-12-18T01:15:05;9.07;;;6.35;;
6898;SDS011;3488;42.616;23.350;2022-12-18T01:17:39;7.22;;;6.60;;
6898;SDS011;3488;42.616;23.350;2022-12-18T01:20:07;6.43;;;5.72;;
6898;SDS011;3488;42.616;23.350;2022-12-18T01:22:34;7.82;;;6.28;;
6898;SDS011;3488;42.616;23.350;2022-12-18T01:25:03;8.38;;;6.68;;
6898;SDS011;3488;42.616;23.350;2022-12-18T01:27:32;8.52;;;6.85;;
6898;SDS011;3488;42.616;23.350;2022-12-18T01:30:00;7.70;;;6.68;;
6898;SDS011;3488;42.616;23.350;2022-12-18T01:32:28;7.30;;;6.55;;
6898;SDS011;3488;42.616;23.350;2022-12-18T01:34:56;9.70;;;6.55;;
6898;SDS011;3488;42.616;23.350;2022-12-18T01:37:22;7.47;;;6.53;;
6898;SDS011;3488;42.616;23.350;2022-12-18T01:39:51;9.13;;;6.70;;
6898;SDS011;3488;42.616;23.350;2022-12-18T01:42:19;12.95;;;8.13;;
6898;SDS011;3488;42.616;23.350;2022-12-18T01:45:00;9.80;;;7.47;;
6898;SDS011;3488;42.616;23.350;2022-12-18T01:47:33;13.27;;;8.15;;
6898;SDS011;3488;42.616;23.350;2022-12-18T01:50:05;9.70;;;6.88;;
6898;SDS011;3488;42.616;23.350;2022-12-18T01:52:35;10.35;;;8.32;;
6898;SDS011;3488;42.616;23.350;2022-12-18T01:55:05;9.30;;;7.95;;
6898;SDS011;3488;42.616;23.350;2022-12-18T01:57:34;11.00;;;8.45;;
6898;SDS011;3488;42.616;23.350;2022-12-18T02:00:03;10.90;;;8.63;;
6898;SDS011;3488;42.616;23.350;2022-12-18T02:02:34;11.90;;;8.52;;
6898;SDS011;3488;42.616;23.350;2022-12-18T02:05:02;11.65;;;8.20;;
6898;SDS011;3488;42.616;23.350;2022-12-18T02:07:32;9.50;;;7.78;;
6898;SDS011;3488;42.616;23.350;2022-12-18T02:10:12;10.88;;;8.48;;
6898;SDS011;3488;42.616;23.350;2022-12-18T02:12:48;11.13;;;8.55;;
6898;SDS011;3488;42.616;23.350;2022-12-18T02:15:21;11.57;;;9.23;;
6898;SDS011;3488;42.616;23.350;2022-12-18T02:17:54;11.65;;;8.88;;
6898;SDS011;3488;42.616;23.350;2022-12-18T02:20:30;10.73;;;8.43;;
6898;SDS011;3488;42.616;23.350;2022-12-18T02:23:04;15.45;;;8.10;;
6898;SDS011;3488;42.616;23.350;2022-12-18T02:25:54;10.10;;;9.00;;
6898;SDS011;3488;42.616;23.350;2022-12-18T02:28:32;12.23;;;8.98;;
6898;SDS011;3488;42.616;23.350;2022-12-18T02:31:02;13.13;;;9.80;;
6898;SDS011;3488;42.616;23.350;2022-12-18T02:33:33;14.48;;;8.68;;
6898;SDS011;3488;42.616;23.350;2022-12-18T02:36:02;12.27;;;9.57;;
6898;SDS011;3488;42.616;23.350;2022-12-18T02:38:30;12.48;;;9.43;;
6898;SDS011;3488;42.616;23.350;2022-12-18T02:41:00;11.43;;;9.00;;
6898;SDS011;3488;42.616;23.350;2022-12-18T02:43:29;12.32;;;9.50;;
6898;SDS011;3488;42.616;23.350;2022-12-18T02:45:57;10.43;;;8.77;;
6898;SDS011;3488;42.616;23.350;2022-12-18T02:48:28;16.33;;;10.23;;
6898;SDS011;3488;42.616;23.350;2022-12-18T02:50:59;11.40;;;8.30;;
6898;SDS011;3488;42.616;23.350;2022-12-18T02:53:36;13.20;;;9.80;;
6898;SDS011;3488;42.616;23.350;2022-12-18T02:56:12;14.93;;;10.27;;
6898;SDS011;3488;42.616;23.350;2022-12-18T02:58:45;12.70;;;9.80;;
6898;SDS011;3488;42.616;23.350;2022-12-18T03:01:21;11.65;;;8.48;;
6898;SDS011;3488;42.616;23.350;2022-12-18T03:03:57;13.82;;;9.05;;
6898;SDS011;3488;42.616;23.350;2022-12-18T03:06:32;13.70;;;9.57;;
6898;SDS011;3488;42.616;23.350;2022-12-18T03:09:04;13.13;;;9.10;;
6898;SDS011;3488;42.616;23.350;2022-12-18T03:11:37;10.93;;;7.97;;
6898;SDS011;3488;42.616;23.350;2022-12-18T03:14:24;11.63;;;8.77;;
6898;SDS011;3488;42.616;23.350;2022-12-18T03:16:57;10.43;;;8.52;;
6898;SDS011;3488;42.616;23.350;2022-12-18T03:19:28;12.85;;;9.43;;
6898;SDS011;3488;42.616;23.350;2022-12-18T03:21:58;12.35;;;8.63;;
6898;SDS011;3488;42.616;23.350;2022-12-18T03:24:30;11.38;;;9.02;;
6898;SDS011;3488;42.616;23.350;2022-12-18T03:27:01;13.43;;;9.35;;
6898;SDS011;3488;42.616;23.350;2022-12-18T03:29:32;12.73;;;9.00;;
6898;SDS011;3488;42.616;23.350;2022-12-18T03:32:03;11.18;;;8.68;;
6898;SDS011;3488;42.616;23.350;2022-12-18T03:34:36;11.27;;;8.57;;
6898;SDS011;3488;42.616;23.350;2022-12-18T03:37:06;11.52;;;8.23;;
6898;SDS011;3488;42.616;23.350;2022-12-18T03:39:33;9.82;;;7.30;;
6898;SDS011;3488;42.616;23.350;2022-12-18T03:42:04;12.02;;;8.73;;
6898;SDS011;3488;42.616;23.350;2022-12-18T03:44:35;11.80;;;8.15;;
6898;SDS011;3488;42.616;23.350;2022-12-18T03:47:09;9.75;;;8.20;;
6898;SDS011;3488;42.616;23.350;2022-12-18T03:49:43;10.23;;;6.80;;
6898;SDS011;3488;42.616;23.350;2022-12-18T03:52:15;8.75;;;7.50;;
6898;SDS011;3488;42.616;23.350;2022-12-18T03:54:45;7.10;;;5.65;;
6898;SDS011;3488;42.616;23.350;2022-12-18T03:57:15;8.88;;;5.47;;
6898;SDS011;3488;42.616;23.350;2022-12-18T03:59:45;6.82;;;5.43;;
6898;SDS011;3488;42.616;23.350;2022-12-18T04:02:13;6.20;;;5.60;;
6898;SDS011;3488;42.616;23.350;2022-12-18T04:04:43;7.70;;;5.47;;
6898;SDS011;3488;42.616;23.350;2022-12-18T04:07:13;7.20;;;5.75;;
6898;SDS011;3488;42.616;23.350;2022-12-18T04:09:41;7.60;;;6.65;;
6898;SDS011;3488;42.616;23.350;2022-12-18T04:12:09;7.70;;;6.32;;
6898;SDS011;3488;42.616;23.350;2022-12-18T04:14:38;4.80;;;4.35;;
6898;SDS011;3488;42.616;23.350;2022-12-18T04:17:05;5.45;;;4.55;;
6898;SDS011;3488;42.616;23.350;2022-12-18T04:19:32;7.10;;;5.82;;
6898;SDS011;3488;42.616;23.350;2022-12-18T04:21:59;5.93;;;4.72;;
6898;SDS011;3488;42.616;23.350;2022-12-18T04:24:25;6.55;;;5.15;;
6898;SDS011;3488;42.616;23.350;2022-12-18T04:26:52;5.13;;;4.63;;
6898;SDS011;3488;42.616;23.350;2022-12-18T04:29:19;6.65;;;5.28;;
6898;SDS011;3488;42.616;23.350;2022-12-18T04:31:47;9.93;;;6.13;;
6898;SDS011;3488;42.616;23.350;2022-12-18T04:34:14;6.40;;;5.28;;
6898;SDS011;3488;42.616;23.350;2022-12-18T04:36:41;7.28;;;5.50;;
6898;SDS011;3488;42.616;23.350;2022-12-18T04:39:08;5.47;;;4.95;;
6898;SDS011;3488;42.616;23.350;2022-12-18T04:41:35;5.53;;;4.38;;
6898;SDS011;3488;42.616;23.350;2022-12-18T04:44:02;5.22;;;4.72;;
6898;SDS011;3488;42.616;23.350;2022-12-18T04:46:29;5.88;;;5.28;;
6898;SDS011;3488;42.616;23.350;2022-12-18T04:48:57;5.07;;;3.95;;
6898;SDS011;3488;42.616;23.350;2022-12-18T04:51:24;6.53;;;4.30;;
6898;SDS011;3488;42.616;23.350;2022-12-18T04:53:52;7.00;;;5.38;;
6898;SDS011;3488;42.616;23.350;2022-12-18T04:56:19;9.57;;;6.05;;
6898;SDS011;3488;42.616;23.350;2022-12-18T04:58:45;7.95;;;5.68;;
6898;SDS011;3488;42.616;23.350;2022-12-18T05:01:13;6.90;;;4.82;;
6898;SDS011;3488;42.616;23.350;2022-12-18T05:03:41;8.10;;;6.07;;
6898;SDS011;3488;42.616;23.350;2022-12-18T05:06:10;7.50;;;5.60;;
6898;SDS011;3488;42.616;23.350;2022-12-18T05:08:37;7.38;;;5.75;;
6898;SDS011;3488;42.616;23.350;2022-12-18T05:11:04;7.00;;;5.43;;
6898;SDS011;3488;42.616;23.350;2022-12-18T05:13:33;5.95;;;5.35;;
6898;SDS011;3488;42.616;23.350;2022-12-18T05:16:01;6.00;;;5.00;;
6898;SDS011;3488;42.616;23.350;2022-12-18T05:18:29;7.22;;;5.35;;
6898;SDS011;3488;42.616;23.350;2022-12-18T05:20:55;11.63;;;5.93;;
6898;SDS011;3488;42.616;23.350;2022-12-18T05:23:24;9.30;;;6.97;;
6898;SDS011;3488;42.616;23.350;2022-12-18T05:25:52;8.88;;;6.63;;
6898;SDS011;3488;42.616;23.350;2022-12-18T05:28:19;8.20;;;6.00;;
6898;SDS011;3488;42.616;23.350;2022-12-18T05:30:47;8.55;;;6.22;;
6898;SDS011;3488;42.616;23.350;2022-12-18T05:33:15;9.23;;;6.40;;
6898;SDS011;3488;42.616;23.350;2022-12-18T05:35:42;7.97;;;6.25;;
6898;SDS011;3488;42.616;23.350;2022-12-18T05:38:10;8.57;;;5.88;;
6898;SDS011;3488;42.616;23.350;2022-12-18T05:40:40;7.68;;;6.50;;
6898;SDS011;3488;42.616;23.350;2022-12-18T05:43:12;8.57;;;5.93;;
6898;SDS011;3488;42.616;23.350;2022-12-18T05:45:39;11.88;;;7.63;;
6898;SDS011;3488;42.616;23.350;2022-12-18T05:48:06;10.52;;;7.18;;
6898;SDS011;3488;42.616;23.350;2022-12-18T05:50:34;7.55;;;6.72;;
6898;SDS011;3488;42.616;23.350;2022-12-18T05:53:01;5.68;;;4.43;;
6898;SDS011;3488;42.616;23.350;2022-12-18T05:55:28;10.02;;;6.78;;
6898;SDS011;3488;42.616;23.350;2022-12-18T05:58:00;8.93;;;6.93;;
6898;SDS011;3488;42.616;23.350;2022-12-18T06:00:27;9.00;;;7.57;;
6898;SDS011;3488;42.616;23.350;2022-12-18T06:02:54;8.85;;;6.95;;
6898;SDS011;3488;42.616;23.350;2022-12-18T06:05:21;12.43;;;8.40;;
6898;SDS011;3488;42.616;23.350;2022-12-18T06:07:48;11.77;;;8.35;;
6898;SDS011;3488;42.616;23.350;2022-12-18T06:10:15;9.38;;;8.07;;
6898;SDS011;3488;42.616;23.350;2022-12-18T06:12:42;13.60;;;9.35;;
6898;SDS011;3488;42.616;23.350;2022-12-18T06:15:11;13.70;;;9.00;;
6898;SDS011;3488;42.616;23.350;2022-12-18T06:17:38;13.98;;;9.02;;
6898;SDS011;3488;42.616;23.350;2022-12-18T06:20:05;11.60;;;8.13;;
6898;SDS011;3488;42.616;23.350;2022-12-18T06:22:33;12.73;;;8.50;;
6898;SDS011;3488;42.616;23.350;2022-12-18T06:25:00;8.27;;;6.85;;
6898;SDS011;3488;42.616;23.350;2022-12-18T06:27:27;9.55;;;7.53;;
6898;SDS011;3488;42.616;23.350;2022-12-18T06:29:54;10.35;;;7.75;;
6898;SDS011;3488;42.616;23.350;2022-12-18T06:32:22;8.35;;;7.43;;
6898;SDS011;3488;42.616;23.350;2022-12-18T06:34:49;9.77;;;7.20;;
6898;SDS011;3488;42.616;23.350;2022-12-18T06:37:16;8.70;;;6.68;;
6898;SDS011;3488;42.616;23.350;2022-12-18T06:39:43;10.18;;;6.72;;
6898;SDS011;3488;42.616;23.350;2022-12-18T06:42:11;13.50;;;7.30;;
6898;SDS011;3488;42.616;23.350;2022-12-18T06:44:37;11.68;;;7.00;;
6898;SDS011;3488;42.616;23.350;2022-12-18T06:47:04;10.05;;;6.15;;
6898;SDS011;3488;42.616;23.350;2022-12-18T06:49:32;8.23;;;6.35;;
6898;SDS011;3488;42.616;23.350;2022-12-18T06:51:59;8.30;;;6.60;;
6898;SDS011;3488;42.616;23.350;2022-12-18T06:54:26;8.60;;;5.85;;
6898;SDS011;3488;42.616;23.350;2022-12-18T06:56:53;11.38;;;7.57;;
6898;SDS011;3488;42.616;23.350;2022-12-18T06:59:20;7.72;;;6.32;;
6898;SDS011;3488;42.616;23.350;2022-12-18T07:01:47;14.80;;;6.38;;
6898;SDS011;3488;42.616;23.350;2022-12-18T07:04:14;8.48;;;6.50;;
6898;SDS011;3488;42.616;23.350;2022-12-18T07:06:42;12.25;;;7.05;;
6898;SDS011;3488;42.616;23.350;2022-12-18T07:09:09;8.25;;;5.47;;
6898;SDS011;3488;42.616;23.350;2022-12-18T07:11:36;10.65;;;7.05;;
6898;SDS011;3488;42.616;23.350;2022-12-18T07:14:03;8.75;;;6.20;;
6898;SDS011;3488;42.616;23.350;2022-12-18T07:16:30;9.65;;;6.55;;
6898;SDS011;3488;42.616;23.350;2022-12-18T07:18:57;9.57;;;6.32;;
6898;SDS011;3488;42.616;23.350;2022-12-18T07:21:24;8.45;;;5.90;;
6898;SDS011;3488;42.616;23.350;2022-12-18T07:23:55;10.40;;;7.05;;
6898;SDS011;3488;42.616;23.350;2022-12-18T07:26:22;14.10;;;5.90;;
6898;SDS011;3488;42.616;23.350;2022-12-18T07:28:49;8.05;;;6.18;;
6898;SDS011;3488;42.616;23.350;2022-12-18T07:31:17;8.80;;;6.35;;
6898;SDS011;3488;42.616;23.350;2022-12-18T07:33:45;7.80;;;5.90;;
6898;SDS011;3488;42.616;23.350;2022-12-18T07:36:13;9.40;;;6.68;;
6898;SDS011;3488;42.616;23.350;2022-12-18T07:38:40;10.82;;;7.30;;
6898;SDS011;3488;42.616;23.350;2022-12-18T07:41:09;7.57;;;6.35;;
6898;SDS011;3488;42.616;23.350;2022-12-18T07:43:38;11.10;;;6.90;;
6898;SDS011;3488;42.616;23.350;2022-12-18T07:46:06;8.35;;;6.80;;
6898;SDS011;3488;42.616;23.350;2022-12-18T07:48:34;9.27;;;6.70;;
6898;SDS011;3488;42.616;23.350;2022-12-18T07:51:03;10.35;;;6.30;;
6898;SDS011;3488;42.616;23.350;2022-12-18T07:53:51;8.93;;;6.78;;
6898;SDS011;3488;42.616;23.350;2022-12-18T07:56:20;12.15;;;7.72;;
6898;SDS011;3488;42.616;23.350;2022-12-18T07:58:50;11.38;;;6.65;;
6898;SDS011;3488;42.616;23.350;2022-12-18T08:01:17;12.15;;;7.82;;
6898;SDS011;3488;42.616;23.350;2022-12-18T08:03:44;12.35;;;7.78;;
6898;SDS011;3488;42.616;23.350;2022-12-18T08:06:14;8.43;;;6.90;;
6898;SDS011;3488;42.616;23.350;2022-12-18T08:08:41;8.75;;;5.65;;
6898;SDS011;3488;42.616;23.350;2022-12-18T08:11:08;11.13;;;7.03;;
6898;SDS011;3488;42.616;23.350;2022-12-18T08:13:36;10.68;;;7.28;;
6898;SDS011;3488;42.616;23.350;2022-12-18T08:16:04;13.75;;;8.63;;
6898;SDS011;3488;42.616;23.350;2022-12-18T08:18:33;13.73;;;8.95;;
6898;SDS011;3488;42.616;23.350;2022-12-18T08:21:07;16.48;;;10.98;;
6898;SDS011;3488;42.616;23.350;2022-12-18T08:23:38;15.00;;;10.48;;
6898;SDS011;3488;42.616;23.350;2022-12-18T08:26:06;18.40;;;8.93;;
6898;SDS011;3488;42.616;23.350;2022-12-18T08:28:33;12.75;;;8.32;;
6898;SDS011;3488;42.616;23.350;2022-12-18T08:31:02;15.23;;;9.80;;
6898;SDS011;3488;42.616;23.350;2022-12-18T08:33:29;14.60;;;9.57;;
6898;SDS011;3488;42.616;23.350;2022-12-18T08:35:57;16.42;;;10.25;;
6898;SDS011;3488;42.616;23.350;2022-12-18T08:38:25;16.05;;;10.80;;
6898;SDS011;3488;42.616;23.350;2022-12-18T08:40:57;15.02;;;10.27;;
6898;SDS011;3488;42.616;23.350;2022-12-18T08:43:25;19.83;;;11.55;;
6898;SDS011;3488;42.616;23.350;2022-12-18T08:46:12;19.45;;;11.95;;
6898;SDS011;3488;42.616;23.350;2022-12-18T08:48:39;19.17;;;10.63;;
6898;SDS011;3488;42.616;23.350;2022-12-18T08:51:06;18.17;;;11.43;;
6898;SDS011;3488;42.616;23.350;2022-12-18T08:53:34;25.70;;;13.40;;
6898;SDS011;3488;42.616;23.350;2022-12-18T08:56:02;19.60;;;10.98;;
6898;SDS011;3488;42.616;23.350;2022-12-18T08:58:30;17.23;;;10.10;;
6898;SDS011;3488;42.616;23.350;2022-12-18T09:00:59;15.20;;;10.38;;
6898;SDS011;3488;42.616;23.350;2022-12-18T09:03:28;18.67;;;11.20;;
6898;SDS011;3488;42.616;23.350;2022-12-18T09:05:55;15.68;;;10.63;;
6898;SDS011;3488;42.616;23.350;2022-12-18T09:08:22;21.15;;;11.95;;
6898;SDS011;3488;42.616;23.350;2022-12-18T09:10:51;20.75;;;12.30;;
6898;SDS011;3488;42.616;23.350;2022-12-18T09:13:22;20.02;;;13.20;;
6898;SDS011;3488;42.616;23.350;2022-12-18T09:15:49;21.23;;;13.55;;
6898;SDS011;3488;42.616;23.350;2022-12-18T09:18:19;19.60;;;12.60;;
6898;SDS011;3488;42.616;23.350;2022-12-18T09:21:06;19.15;;;12.93;;
6898;SDS011;3488;42.616;23.350;2022-12-18T09:24:13;19.38;;;13.60;;
6898;SDS011;3488;42.616;23.350;2022-12-18T09:26:41;18.02;;;11.75;;
6898;SDS011;3488;42.616;23.350;2022-12-18T09:29:08;25.67;;;14.07;;
6898;SDS011;3488;42.616;23.350;2022-12-18T09:31:36;26.38;;;14.70;;
6898;SDS011;3488;42.616;23.350;2022-12-18T09:37:03;29.13;;;15.88;;
6898;SDS011;3488;42.616;23.350;2022-12-18T09:39:30;28.40;;;15.82;;
6898;SDS011;3488;42.616;23.350;2022-12-18T09:41:57;25.23;;;15.07;;
6898;SDS011;3488;42.616;23.350;2022-12-18T09:44:25;28.83;;;15.57;;
6898;SDS011;3488;42.616;23.350;2022-12-18T09:47:03;26.80;;;13.63;;
6898;SDS011;3488;42.616;23.350;2022-12-18T09:49:36;27.13;;;14.57;;
6898;SDS011;3488;42.616;23.350;2022-12-18T09:52:11;27.08;;;14.40;;
6898;SDS011;3488;42.616;23.350;2022-12-18T09:54:42;25.40;;;14.52;;
6898;SDS011;3488;42.616;23.350;2022-12-18T09:57:13;24.50;;;15.13;;
6898;SDS011;3488;42.616;23.350;2022-12-18T09:59:43;25.85;;;14.80;;
6898;SDS011;3488;42.616;23.350;2022-12-18T10:02:16;26.80;;;15.98;;
6898;SDS011;3488;42.616;23.350;2022-12-18T10:04:48;22.65;;;14.10;;
6898;SDS011;3488;42.616;23.350;2022-12-18T10:07:28;15.65;;;11.63;;
6898;SDS011;3488;42.616;23.350;2022-12-18T10:10:03;23.50;;;13.55;;
6898;SDS011;3488;42.616;23.350;2022-12-18T10:12:41;18.15;;;12.52;;
6898;SDS011;3488;42.616;23.350;2022-12-18T10:15:16;15.40;;;9.70;;
6898;SDS011;3488;42.616;23.350;2022-12-18T10:17:50;21.63;;;11.38;;
6898;SDS011;3488;42.616;23.350;2022-12-18T10:20:24;19.65;;;10.48;;
6898;SDS011;3488;42.616;23.350;2022-12-18T10:23:01;17.05;;;11.40;;
6898;SDS011;3488;42.616;23.350;2022-12-18T10:25:38;20.13;;;12.52;;
6898;SDS011;3488;42.616;23.350;2022-12-18T10:28:12;19.95;;;12.98;;
6898;SDS011;3488;42.616;23.350;2022-12-18T10:30:41;20.17;;;12.45;;
6898;SDS011;3488;42.616;23.350;2022-12-18T10:33:10;23.90;;;12.77;;
6898;SDS011;3488;42.616;23.350;2022-12-18T10:35:38;21.35;;;13.02;;
6898;SDS011;3488;42.616;23.350;2022-12-18T10:38:21;19.88;;;13.38;;
6898;SDS011;3488;42.616;23.350;2022-12-18T10:40:51;21.48;;;13.05;;
6898;SDS011;3488;42.616;23.350;2022-12-18T10:43:20;19.20;;;10.77;;
6898;SDS011;3488;42.616;23.350;2022-12-18T10:45:58;19.88;;;12.50;;
6898;SDS011;3488;42.616;23.350;2022-12-18T10:48:27;20.75;;;13.05;;
6898;SDS011;3488;42.616;23.350;2022-12-18T10:50:54;18.10;;;11.65;;
6898;SDS011;3488;42.616;23.350;2022-12-18T10:53:24;22.00;;;13.10;;
6898;SDS011;3488;42.616;23.350;2022-12-18T10:55:53;24.95;;;12.57;;
6898;SDS011;3488;42.616;23.350;2022-12-18T10:58:25;23.58;;;11.95;;
6898;SDS011;3488;42.616;23.350;2022-12-18T11:01:10;21.08;;;12.40;;
6898;SDS011;3488;42.616;23.350;2022-12-18T11:03:39;21.17;;;12.35;;
6898;SDS011;3488;42.616;23.350;2022-12-18T11:06:08;19.10;;;11.57;;
6898;SDS011;3488;42.616;23.350;2022-12-18T11:08:38;20.25;;;11.43;;
6898;SDS011;3488;42.616;23.350;2022-12-18T11:11:09;14.48;;;9.23;;
6898;SDS011;3488;42.616;23.350;2022-12-18T11:13:48;16.88;;;10.68;;
6898;SDS011;3488;42.616;23.350;2022-12-18T11:16:24;15.02;;;9.57;;
6898;SDS011;3488;42.616;23.350;2022-12-18T11:18:51;17.17;;;10.52;;
6898;SDS011;3488;42.616;23.350;2022-12-18T11:21:18;12.40;;;8.30;;
6898;SDS011;3488;42.616;23.350;2022-12-18T11:23:48;14.00;;;9.32;;
6898;SDS011;3488;42.616;23.350;2022-12-18T11:26:16;12.68;;;8.27;;
6898;SDS011;3488;42.616;23.350;2022-12-18T11:28:44;12.88;;;8.45;;
6898;SDS011;3488;42.616;23.350;2022-12-18T11:31:22;12.93;;;7.97;;
6898;SDS011;3488;42.616;23.350;2022-12-18T11:33:56;11.85;;;7.95;;
6898;SDS011;3488;42.616;23.350;2022-12-18T11:36:28;12.10;;;6.50;;
6898;SDS011;3488;42.616;23.350;2022-12-18T11:39:03;12.93;;;8.45;;
6898;SDS011;3488;42.616;23.350;2022-12-18T11:41:41;13.65;;;8.45;;
6898;SDS011;3488;42.616;23.350;2022-12-18T11:44:32;15.93;;;9.40;;
6898;SDS011;3488;42.616;23.350;2022-12-18T11:47:09;17.17;;;8.77;;
6898;SDS011;3488;42.616;23.350;2022-12-18T11:49:45;12.02;;;8.23;;
6898;SDS011;3488;42.616;23.350;2022-12-18T11:52:16;14.90;;;8.90;;
6898;SDS011;3488;42.616;23.350;2022-12-18T11:54:52;9.90;;;6.72;;
6898;SDS011;3488;42.616;23.350;2022-12-18T11:57:23;10.68;;;6.72;;
6898;SDS011;3488;42.616;23.350;2022-12-18T12:00:01;11.45;;;7.68;;
6898;SDS011;3488;42.616;23.350;2022-12-18T12:02:42;12.27;;;7.20;;
6898;SDS011;3488;42.616;23.350;2022-12-18T12:05:33;13.95;;;8.13;;
6898;SDS011;3488;42.616;23.350;2022-12-18T12:08:11;11.05;;;8.27;;
6898;SDS011;3488;42.616;23.350;2022-12-18T12:10:49;22.38;;;13.50;;
6898;SDS011;3488;42.616;23.350;2022-12-18T12:13:25;20.17;;;12.10;;
6898;SDS011;3488;42.616;23.350;2022-12-18T12:16:03;15.43;;;10.32;;
6898;SDS011;3488;42.616;23.350;2022-12-18T12:18:49;19.77;;;12.10;;
6898;SDS011;3488;42.616;23.350;2022-12-18T12:21:28;15.25;;;9.63;;
6898;SDS011;3488;42.616;23.350;2022-12-18T12:24:05;17.35;;;10.25;;
6898;SDS011;3488;42.616;23.350;2022-12-18T12:26:47;16.52;;;9.77;;
6898;SDS011;3488;42.616;23.350;2022-12-18T12:29:27;15.32;;;8.65;;
6898;SDS011;3488;42.616;23.350;2022-12-18T12:32:06;15.32;;;10.23;;
6898;SDS011;3488;42.616;23.350;2022-12-18T12:34:45;14.77;;;9.05;;
6898;SDS011;3488;42.616;23.350;2022-12-18T12:37:23;14.77;;;9.55;;
6898;SDS011;3488;42.616;23.350;2022-12-18T12:39:58;14.02;;;10.30;;
6898;SDS011;3488;42.616;23.350;2022-12-18T12:42:29;15.00;;;8.45;;
6898;SDS011;3488;42.616;23.350;2022-12-18T12:45:18;12.57;;;8.60;;
6898;SDS011;3488;42.616;23.350;2022-12-18T12:47:49;13.93;;;9.07;;
6898;SDS011;3488;42.616;23.350;2022-12-18T12:50:19;14.02;;;9.15;;
6898;SDS011;3488;42.616;23.350;2022-12-18T12:52:48;15.45;;;9.35;;
6898;SDS011;3488;42.616;23.350;2022-12-18T12:55:19;15.10;;;9.80;;
6898;SDS011;3488;42.616;23.350;2022-12-18T12:57:51;18.20;;;10.88;;
6898;SDS011;3488;42.616;23.350;2022-12-18T13:00:25;16.67;;;9.32;;
6898;SDS011;3488;42.616;23.350;2022-12-18T13:03:04;20.00;;;11.13;;
6898;SDS011;3488;42.616;23.350;2022-12-18T13:05:41;19.35;;;10.55;;
6898;SDS011;3488;42.616;23.350;2022-12-18T13:08:22;14.68;;;9.75;;
6898;SDS011;3488;42.616;23.350;2022-12-18T13:10:51;18.35;;;11.20;;
6898;SDS011;3488;42.616;23.350;2022-12-18T13:13:51;13.82;;;9.15;;
6898;SDS011;3488;42.616;23.350;2022-12-18T13:16:20;15.80;;;9.68;;
6898;SDS011;3488;42.616;23.350;2022-12-18T13:18:49;13.98;;;10.00;;
6898;SDS011;3488;42.616;23.350;2022-12-18T13:21:20;16.10;;;10.00;;
6898;SDS011;3488;42.616;23.350;2022-12-18T13:23:49;17.95;;;10.07;;
6898;SDS011;3488;42.616;23.350;2022-12-18T13:26:32;19.38;;;11.25;;
6898;SDS011;3488;42.616;23.350;2022-12-18T13:29:00;16.30;;;10.63;;
6898;SDS011;3488;42.616;23.350;2022-12-18T13:34:32;15.50;;;10.00;;
6898;SDS011;3488;42.616;23.350;2022-12-18T13:40:07;17.17;;;10.27;;
6898;SDS011;3488;42.616;23.350;2022-12-18T13:43:23;17.90;;;10.60;;
6898;SDS011;3488;42.616;23.350;2022-12-18T13:46:00;22.98;;;12.68;;
6898;SDS011;3488;42.616;23.350;2022-12-18T13:48:31;17.42;;;10.85;;
6898;SDS011;3488;42.616;23.350;2022-12-18T13:51:02;19.50;;;10.95;;
6898;SDS011;3488;42.616;23.350;2022-12-18T13:53:33;18.10;;;10.65;;
6898;SDS011;3488;42.616;23.350;2022-12-18T13:56:03;21.25;;;11.77;;
6898;SDS011;3488;42.616;23.350;2022-12-18T13:58:30;17.38;;;10.98;;
6898;SDS011;3488;42.616;23.350;2022-12-18T14:00:58;17.17;;;10.98;;
6898;SDS011;3488;42.616;23.350;2022-12-18T14:03:30;22.33;;;11.38;;
6898;SDS011;3488;42.616;23.350;2022-12-18T14:06:04;17.67;;;10.65;;
6898;SDS011;3488;42.616;23.350;2022-12-18T14:08:36;18.15;;;11.10;;
6898;SDS011;3488;42.616;23.350;2022-12-18T14:11:05;19.08;;;10.70;;
6898;SDS011;3488;42.616;23.350;2022-12-18T14:13:35;16.92;;;11.30;;
6898;SDS011;3488;42.616;23.350;2022-12-18T14:16:11;18.08;;;11.43;;
6898;SDS011;3488;42.616;23.350;2022-12-18T14:18:42;19.48;;;11.85;;
6898;SDS011;3488;42.616;23.350;2022-12-18T14:21:17;46.58;;;23.45;;
6898;SDS011;3488;42.616;23.350;2022-12-18T14:23:46;83.60;;;41.42;;
6898;SDS011;3488;42.616;23.350;2022-12-18T14:26:23;43.08;;;21.88;;
6898;SDS011;3488;42.616;23.350;2022-12-18T14:28:54;25.98;;;14.57;;
6898;SDS011;3488;42.616;23.350;2022-12-18T14:31:23;26.05;;;15.68;;
6898;SDS011;3488;42.616;23.350;2022-12-18T14:33:53;28.00;;;15.23;;
6898;SDS011;3488;42.616;23.350;2022-12-18T14:36:21;22.23;;;13.30;;
6898;SDS011;3488;42.616;23.350;2022-12-18T14:38:50;18.45;;;13.75;;
6898;SDS011;3488;42.616;23.350;2022-12-18T14:41:18;24.00;;;14.45;;
6898;SDS011;3488;42.616;23.350;2022-12-18T14:43:47;24.33;;;12.63;;
6898;SDS011;3488;42.616;23.350;2022-12-18T14:46:27;18.52;;;11.18;;
6898;SDS011;3488;42.616;23.350;2022-12-18T14:48:59;17.08;;;10.25;;
6898;SDS011;3488;42.616;23.350;2022-12-18T14:51:28;24.60;;;12.13;;
6898;SDS011;3488;42.616;23.350;2022-12-18T14:53:58;19.83;;;10.48;;
6898;SDS011;3488;42.616;23.350;2022-12-18T14:56:27;16.38;;;10.88;;
6898;SDS011;3488;42.616;23.350;2022-12-18T14:58:56;18.15;;;12.10;;
6898;SDS011;3488;42.616;23.350;2022-12-18T15:01:28;15.50;;;10.00;;
6898;SDS011;3488;42.616;23.350;2022-12-18T15:03:57;16.38;;;10.20;;
6898;SDS011;3488;42.616;23.350;2022-12-18T15:06:29;17.42;;;10.80;;
6898;SDS011;3488;42.616;23.350;2022-12-18T15:08:58;19.52;;;11.25;;
6898;SDS011;3488;42.616;23.350;2022-12-18T15:11:28;19.67;;;12.15;;
6898;SDS011;3488;42.616;23.350;2022-12-18T15:14:00;20.00;;;11.13;;
6898;SDS011;3488;42.616;23.350;2022-12-18T15:16:51;20.08;;;11.80;;
6898;SDS011;3488;42.616;23.350;2022-12-18T15:19:19;17.65;;;11.07;;